Jump to content


DELTA AIRLINES FLIGHT DL77 FLOWN ON 01-18-2018 BY CAPTAIN JIM BOERMAN

Pilot StatsCaptain Jim Boerman (LDP136) • 4,917.8 total hours • 1,480 total flights [View Logbook]
FLIGHT DETAILS
StatusReceived and approved on 2018-01-18 at 08:01:22
Origin AirportLos Angeles Intl (KLAX) • Los Angeles, California, United States (126 feet MSL)
Filed Flight PlanKLAX JUGLI J10 RUSTT J128 FQF J10 OBH J100 OBK J547 FNT Q824 HOCKE Q905 SIKBO Q907 MIILS N324A ELSIR NATX XETBO ARKIL UN80 NAKID UN160 PIGOP UN491 TABOV UN858 TSU LFPG
Destination AirportCharles-de-Gaulle (LFPG) • Paris, France (392 feet MSL)
Alternate AirportOrly (LFPO) • Paris, France (291 feet MSL)
AirlineDelta Airlines
AircraftBoeing 777-200LR (77L / B777-200LR)
FS Aircraft UsedPMDG 777-232LR Delta Air Lines
Cruising AltitudeFL330
Distance Flown4,916 nautical miles
Passengers Onboard111 passengers (36.88% full)
DEPARTURE DETAILS
Time Out18:35:03
Taxi Data551,132 lbs total with 158,208 lbs of fuel onboard
Takeoff Data18:45:02 (10 minutes after leaving gate/ramp) • 549,690 lbs total • 9° pitch at 179 knots
Departure METARKLAX 180053Z 25004KT 10SM FEW150 FEW200 SCT250 18/13 A3011 RMK AO2 SLP195 T01780128 $
ARRIVAL DETAILS
Landing Data14:02:57 • 406,289 lbs total • 3° pitch doing 126 knots at a rate of -146.10 feet/minute with 12,710 lbs of fuel onboard
Time In14:11:12 (8 minutes after landing)
Ramp Weight405,634 lbs total
Total Fuel Used145,498 lbs
Total Block Time10:35:51 (10.6 hours) while 18 minutes were spent on the ground
Arrival METARLFPG 181300Z 29014KT 9999 FEW029 BKN033 11/06 Q1006 TEMPO 27017G30KT
MISCELLANEOUS DETAILS
LiveDISPATCH Version4.8.3.1
FS Version
FSUIPC Version5.12
OS VersionWindows 7 32-bit
Screen Resolution1920 x 1080
Pilot's CommentsNo Comments Reported
FLIGHT MAP